Scotland, Georgia
Current Conditions -  °F | °C
As of 8:35 AM on Sunday 23 Nov 2014 (Local Time) from KAZE Reporting Station
Drizzle Drizzle  
Wind Chill: 17°   Ceiling: 400
Heat Index: 17°   Visibility: 10mi
Dew Point: 17°   Wind: 8mph
Humidity: 100%   Direction: 90°E
Pressure: 30.01"   Gusts: NA
Location:  32.05°N, 82.82°W
Report Text: KAZE 231335Z AUTO 09007KT 10SM DZ OVC004 17/17 A3001 RMK AO2 T01670167
Loading
Personal Weather Stations






























Interactive Weather Map New forecast layout! Learn more

10-Day Weather Forecast

Advertisements
Track Severe Weather on mobile